メインページ
METAR-TAF:

METAR-TAF

空港 :

ボーズマン, モンタナ州, アメリカ合衆国

緯度: 45-47-17N, 経度: 111-09-39W, 海抜: 1364m

現時点の気象観測

当レポートは51分前の00:56(UTC)に作成
の風 5kt
気温 7°C
湿度 39%
気圧 1007 hPa
視程: 16.1km
晴天

METAR: KBZN 240056Z 19005KT 10SM CLR 07/M06 A2973 RMK AO2 SLP097 T00721056

時間: 18:47 (01:47 UTC)

予報

当レポートは34分前の01:13(UTC)に作成
予報は24日の 01時(UTC)から 25日の 06時(UTC)まで有効
変向風 4kt
視程: 10km
高度7000ftの雲は散在している
高度10000ftの千切れ雲あり
24日の 0300時(UTC)から
西/南西の風 11kt
視程: 10km
高度3000ftの雲は散在している
高度5000ftの千切れ雲あり
近辺でにわか雨
24日の 03時(UTC)から 24日の 06時(UTC)まで一時的に
西の風 25kt、最大40ktの突風を伴う
視程: 0.8km
高度600ftの千切れ雲あり
24日の 0800時(UTC)から
西の風 11kt
視程: 10km
高度7000ftの雲は散在している
高度10000ftの千切れ雲あり

TAF: KBZN 240113Z 2401/2506 VRB04KT P6SM SCT070 BKN100 FM240300 25011KT P6SM VCSH SCT030 BKN050 TEMPO 2403/2406 27025G40KT 1/2SM SN BKN006 FM240800 28011KT P6SM SCT070 BKN100

4,000以上の空港の気象観測と天気予報(METAR報とTAF報)

利用可能な観測所は地図上に黄色い丸と赤い丸で示す。

丸の上にカーソルを重ねると観測所名を参照できる。

次にクリックすると気象観測と天気予報を参照できる。

マップの切り替え:黒色「×」印の緑ボタンをクリックして拡大、「-」印の緑ボタンをクリックして縮小、緑色の三角印をクリックして隣りの地図に切り替え


METAR-TAF: